createdAt,value
2023-08-14T00:09:41.109Z,74.89
2023-08-14T00:19:46.981Z,74.96
2023-08-14T00:29:52.692Z,74.83
2023-08-14T00:39:59.480Z,75.05
2023-08-14T00:50:06.144Z,75.77
2023-08-14T01:00:14.614Z,76.50
2023-08-14T01:10:20.712Z,77.40
2023-08-14T01:20:30.391Z,77.98
2023-08-14T01:30:36.201Z,78.58
2023-08-14T01:40:47.709Z,79.21
2023-08-14T01:50:55.455Z,79.75
2023-08-14T02:01:01.187Z,80.46
2023-08-14T02:11:11.026Z,81.46
2023-08-14T02:21:17.520Z,82.54
2023-08-14T02:31:23.395Z,83.40
2023-08-14T02:41:30.740Z,83.94
2023-08-14T02:51:36.382Z,84.99
2023-08-14T03:01:42.120Z,86.20
2023-08-14T03:11:47.722Z,87.85
2023-08-14T03:21:54.003Z,89.09
2023-08-14T03:32:00.144Z,89.63
2023-08-14T03:42:06.234Z,89.99
2023-08-14T03:52:12.027Z,90.17
2023-08-14T04:02:18.259Z,90.24
2023-08-14T04:12:24.104Z,90.47
2023-08-14T04:22:29.712Z,90.63
2023-08-14T04:32:36.624Z,90.58
2023-08-14T04:42:42.338Z,90.24
2023-08-14T04:52:48.076Z,89.98
2023-08-14T05:02:53.863Z,88.64
2023-08-14T05:12:59.718Z,87.68
2023-08-14T05:23:06.534Z,88.08
2023-08-14T05:33:12.412Z,87.51
2023-08-14T05:43:18.413Z,86.35
2023-08-14T05:53:24.435Z,85.33
2023-08-14T06:03:43.619Z,85.79
2023-08-14T06:13:50.350Z,81.82
2023-08-14T06:23:56.080Z,77.74
2023-08-14T06:34:02.241Z,76.92
2023-08-14T06:44:10.668Z,79.65
2023-08-14T06:54:16.523Z,81.11
2023-08-14T07:04:22.437Z,65.85
2023-08-14T07:14:30.673Z,64.40
2023-08-14T07:24:37.082Z,54.08
2023-08-14T07:34:42.855Z,51.69
2023-08-14T07:44:48.869Z,45.09
2023-08-14T07:54:54.733Z,36.93
2023-08-14T08:05:00.700Z,30.65
2023-08-14T08:15:08.177Z,27.78
2023-08-14T08:25:14.076Z,28.78
2023-08-14T08:35:19.847Z,30.61
2023-08-14T08:45:29.645Z,32.24
2023-08-14T08:55:35.804Z,33.73
2023-08-14T09:05:42.582Z,35.33
2023-08-14T09:15:48.505Z,37.30
2023-08-14T09:25:54.338Z,38.61
2023-08-14T09:36:01.764Z,39.60
2023-08-14T09:46:07.622Z,40.34
2023-08-14T09:56:12.323Z,41.03
2023-08-14T10:06:20.084Z,41.09
2023-08-14T10:16:32.593Z,41.40
2023-08-14T10:26:38.516Z,42.17
2023-08-14T10:36:44.433Z,42.90
2023-08-14T10:46:50.560Z,43.05
2023-08-14T10:57:01.657Z,43.61
2023-08-14T11:07:12.807Z,44.27
2023-08-14T11:17:18.798Z,45.08
2023-08-14T11:27:26.772Z,45.94
2023-08-14T11:37:33.106Z,46.67
2023-08-14T11:47:45.752Z,46.80
2023-08-14T11:57:52.374Z,46.92
2023-08-14T12:08:03.320Z,47.14
2023-08-14T12:18:16.114Z,47.10
2023-08-14T12:28:22.912Z,46.74
2023-08-14T12:38:29.773Z,46.32
2023-08-14T12:48:35.538Z,45.63
2023-08-14T12:58:41.377Z,45.11
2023-08-14T13:08:47.226Z,44.09
2023-08-14T13:18:53.354Z,43.08
2023-08-14T13:28:59.107Z,42.28
2023-08-14T13:39:06.774Z,42.09
2023-08-14T13:49:12.600Z,41.11
2023-08-14T13:59:18.739Z,39.70
2023-08-14T14:09:24.579Z,38.24
2023-08-14T14:19:31.333Z,37.88
2023-08-14T14:29:35.555Z,37.62
2023-08-14T14:39:41.524Z,37.16
2023-08-14T14:49:48.199Z,37.07
2023-08-14T14:59:54.199Z,36.84
2023-08-14T15:10:00.273Z,36.45
2023-08-14T15:20:07.345Z,36.38
2023-08-14T15:30:15.536Z,36.34
2023-08-14T15:40:21.432Z,35.76
2023-08-14T15:50:27.308Z,35.67
2023-08-14T16:00:34.130Z,35.48
2023-08-14T16:10:40.072Z,35.98
2023-08-14T16:20:45.999Z,36.37
2023-08-14T16:30:52.653Z,36.07
2023-08-14T16:40:58.555Z,35.50
2023-08-14T16:51:06.233Z,35.70
2023-08-14T17:01:11.918Z,36.60
2023-08-14T17:11:17.658Z,37.49
2023-08-14T17:21:23.560Z,38.45
2023-08-14T17:31:30.596Z,39.08
2023-08-14T17:41:34.869Z,40.17
2023-08-14T17:51:40.715Z,41.67
2023-08-14T18:01:46.757Z,43.05
2023-08-14T18:11:52.637Z,44.35
2023-08-14T18:21:58.574Z,45.37
2023-08-14T18:32:06.344Z,47.05
2023-08-14T18:42:12.161Z,49.10
2023-08-14T18:52:17.978Z,50.84
2023-08-14T19:02:24.075Z,51.53
2023-08-14T19:12:30.354Z,52.90
2023-08-14T19:22:35.986Z,54.26
2023-08-14T19:32:41.810Z,55.54
2023-08-14T19:42:47.813Z,56.58
2023-08-14T19:52:53.606Z,57.64
2023-08-14T20:02:59.500Z,58.25
2023-08-14T20:13:06.466Z,59.36
2023-08-14T20:23:12.539Z,60.03
2023-08-14T20:33:18.480Z,60.59
2023-08-14T20:43:30.139Z,61.23
2023-08-14T20:53:35.835Z,61.42
2023-08-14T21:03:41.773Z,62.24
2023-08-14T21:13:47.880Z,62.41
2023-08-14T21:23:53.647Z,63.29
2023-08-14T21:33:59.604Z,63.67
2023-08-14T21:44:05.735Z,64.18
2023-08-14T21:54:13.077Z,64.48
2023-08-14T22:04:18.848Z,64.84
2023-08-14T22:14:25.573Z,65.53
2023-08-14T22:24:40.800Z,65.70
2023-08-14T22:34:47.249Z,65.55
2023-08-14T22:44:52.981Z,65.48
2023-08-14T22:54:58.923Z,65.75
2023-08-14T23:05:05.205Z,65.48
2023-08-14T23:15:12.824Z,66.13
2023-08-14T23:25:19.677Z,66.82
2023-08-14T23:35:25.536Z,66.67
2023-08-14T23:45:31.935Z,67.08
2023-08-14T23:55:37.736Z,67.48
